Time;durP1;ratioP1;P1;durP2;ratioP2;P2;SDS_P1;SDS_P2;PMS_P1;PMS_P2;Temp;Humidity;BMP_temperature;BMP_pressure;BME280_temperature;BME280_humidity;BME280_pressure;Samples;Min_cycle;Max_cycle;Signal;HPM_P1;HPM_P2
2022/04/28 00:00:50;;;;;;;7.88;5.63;;;19.50;99.90;;;;;;5032428;28;20025;-70
2022/04/28 00:03:17;;;;;;;10.15;5.75;;;19.50;99.90;;;;;;5028134;28;20478;-70
2022/04/28 00:05:45;;;;;;;8.68;6.40;;;19.40;99.90;;;;;;5031480;28;20025;-70
2022/04/28 00:08:13;;;;;;;8.25;5.78;;;19.50;99.90;;;;;;5025919;28;20041;-69
2022/04/28 00:10:40;;;;;;;8.43;6.68;;;19.50;99.90;;;;;;5032370;28;20808;-69
2022/04/28 00:13:12;;;;;;;8.73;5.82;;;19.40;99.90;;;;;;5045635;28;20044;-69
2022/04/28 00:15:40;;;;;;;6.57;4.97;;;19.50;99.90;;;;;;5033819;28;20545;-69
2022/04/28 00:18:07;;;;;;;6.28;5.03;;;19.50;99.90;;;;;;5034295;28;20034;-69
2022/04/28 00:20:35;;;;;;;8.60;5.55;;;19.40;99.90;;;;;;5032131;28;20018;-69
2022/04/28 00:23:02;;;;;;;7.78;5.45;;;19.50;99.90;;;;;;5034410;28;20489;-70
2022/04/28 00:25:29;;;;;;;6.53;5.03;;;19.60;99.90;;;;;;5031484;28;20021;-69
2022/04/28 00:27:57;;;;;;;7.72;4.93;;;19.60;99.90;;;;;;5033551;28;20033;-69
2022/04/28 00:30:24;;;;;;;6.40;5.30;;;19.60;99.90;;;;;;5033436;28;20020;-69
2022/04/28 00:32:53;;;;;;;6.60;4.45;;;19.60;99.90;;;;;;5035358;28;20529;-68
2022/04/28 00:35:20;;;;;;;6.13;5.20;;;19.70;99.90;;;;;;5040305;28;20458;-69
2022/04/28 00:37:48;;;;;;;5.07;3.85;;;19.60;99.90;;;;;;5014549;28;20377;-69
2022/04/28 00:40:15;;;;;;;6.07;5.00;;;19.70;99.90;;;;;;5021771;28;20025;-69
2022/04/28 00:42:42;;;;;;;8.93;5.07;;;20.00;99.90;;;;;;5032729;28;20072;-69
2022/04/28 00:45:09;;;;;;;7.05;5.47;;;20.20;99.90;;;;;;5031230;28;20026;-69
2022/04/28 00:50:40;;;;;;;8.07;4.30;;;20.40;99.90;;;;;;5030546;28;20163;-69
2022/04/28 00:53:12;;;;;;;7.68;4.40;;;20.40;99.90;;;;;;5033770;28;20037;-69
2022/04/28 00:55:43;;;;;;;7.65;4.72;;;20.30;99.90;;;;;;5031903;28;20428;-69
2022/04/28 00:58:11;;;;;;;6.22;3.97;;;20.10;99.90;;;;;;5028683;28;20057;-69
2022/04/28 01:00:40;;;;;;;5.68;4.22;;;20.00;99.90;;;;;;5022399;28;20018;-69
2022/04/28 01:03:07;;;;;;;5.78;4.65;;;20.10;99.90;;;;;;5023091;28;20053;-68
2022/04/28 01:05:34;;;;;;;8.57;5.03;;;20.10;99.90;;;;;;5030301;28;20397;-68
2022/04/28 01:08:02;;;;;;;7.25;4.30;;;20.10;99.90;;;;;;5027864;28;20021;-69
2022/04/28 01:10:29;;;;;;;5.88;4.38;;;20.20;99.90;;;;;;5030390;28;20044;-68
2022/04/28 01:12:57;;;;;;;5.43;4.35;;;20.40;99.90;;;;;;5033618;28;20045;-69
2022/04/28 01:15:24;;;;;;;6.28;4.10;;;20.80;99.90;;;;;;5031769;28;20036;-69
2022/04/28 01:17:51;;;;;;;4.00;3.20;;;20.80;99.90;;;;;;5033860;28;20022;-68
2022/04/28 01:20:18;;;;;;;5.82;3.47;;;20.60;99.90;;;;;;5031806;28;20028;-69
2022/04/28 01:22:46;;;;;;;6.63;3.10;;;21.00;99.90;;;;;;5031477;28;20026;-68
2022/04/28 01:25:13;;;;;;;6.50;3.03;;;21.30;99.90;;;;;;5028648;28;20029;-68
2022/04/28 01:27:41;;;;;;;4.38;1.90;;;21.60;99.90;;;;;;5033484;28;20560;-69
2022/04/28 01:30:15;;;;;;;3.72;2.22;;;21.30;99.90;;;;;;5031127;28;20030;-68
2022/04/28 01:32:43;;;;;;;4.47;2.40;;;21.40;99.90;;;;;;5031547;28;20045;-69
2022/04/28 01:35:11;;;;;;;2.70;1.42;;;21.60;99.90;;;;;;5029996;28;20062;-69
2022/04/28 01:37:38;;;;;;;2.55;1.63;;;21.60;99.90;;;;;;5033075;28;20022;-68
2022/04/28 01:40:11;;;;;;;2.08;1.05;;;21.60;99.90;;;;;;5028234;28;20083;-69
2022/04/28 01:42:47;;;;;;;6.10;1.40;;;21.70;99.90;;;;;;5004596;28;20017;-68
2022/04/28 01:45:15;;;;;;;2.45;1.33;;;21.80;99.90;;;;;;5047191;28;20022;-69
2022/04/28 01:47:43;;;;;;;3.67;1.35;;;22.10;99.90;;;;;;5031977;28;20045;-69
2022/04/28 01:50:13;;;;;;;2.15;1.30;;;22.70;99.90;;;;;;5030610;28;20100;-68
2022/04/28 01:55:26;;;;;;;3.00;1.70;;;22.20;99.90;;;;;;5018037;28;20083;-68
2022/04/28 01:57:53;;;;;;;3.42;2.35;;;22.40;99.90;;;;;;5033127;28;20032;-69
2022/04/28 02:00:20;;;;;;;5.18;2.00;;;22.40;99.90;;;;;;5031877;28;20024;-68
2022/04/28 02:02:47;;;;;;;5.28;2.03;;;22.20;99.90;;;;;;5052858;28;20501;-69
2022/04/28 02:05:15;;;;;;;3.38;2.33;;;22.00;99.90;;;;;;5031120;28;20056;-68
2022/04/28 02:07:44;;;;;;;4.30;2.13;;;21.90;99.90;;;;;;5031987;28;20091;-69
2022/04/28 02:10:12;;;;;;;5.40;2.05;;;21.80;99.90;;;;;;5028406;28;20053;-68
2022/04/28 02:12:39;;;;;;;7.28;2.67;;;21.80;99.90;;;;;;5013678;28;20033;-68
2022/04/28 02:15:07;;;;;;;5.40;2.08;;;21.70;99.90;;;;;;5018596;28;20032;-68
2022/04/28 02:17:39;;;;;;;4.90;2.15;;;21.80;99.90;;;;;;5035086;28;20022;-68
2022/04/28 02:20:09;;;;;;;6.15;1.80;;;21.90;99.90;;;;;;5030004;28;20025;-69
2022/04/28 02:22:37;;;;;;;3.22;1.58;;;21.90;99.90;;;;;;5036968;28;20040;-68
2022/04/28 02:25:06;;;;;;;3.40;0.95;;;22.00;99.90;;;;;;5026906;28;20030;-69
2022/04/28 02:27:33;;;;;;;1.65;0.77;;;21.90;99.90;;;;;;5032730;28;20030;-68
2022/04/28 02:30:00;;;;;;;2.03;0.60;;;21.90;99.90;;;;;;5008383;28;20505;-68
2022/04/28 02:33:08;;;;;;;1.15;0.85;;;21.80;99.90;;;;;;5036511;28;20029;-68
2022/04/28 02:35:14;;;;;;;2.05;0.90;;;21.70;99.90;;;;;;5028201;28;20017;-68
2022/04/28 02:37:42;;;;;;;1.85;0.50;;;21.60;99.90;;;;;;5036244;28;20104;-68
2022/04/28 02:40:10;;;;;;;3.00;0.68;;;21.60;99.90;;;;;;5009277;28;20029;-68
2022/04/28 02:42:37;;;;;;;3.05;0.52;;;21.40;99.90;;;;;;5016841;28;20040;-68
2022/04/28 02:45:08;;;;;;;3.53;0.82;;;21.40;99.90;;;;;;5027048;28;20034;-68
2022/04/28 02:47:35;;;;;;;1.77;0.80;;;21.40;99.90;;;;;;5036475;28;20079;-68
2022/04/28 02:50:05;;;;;;;3.05;1.20;;;21.40;99.90;;;;;;5031102;28;20457;-69
2022/04/28 02:52:33;;;;;;;2.28;0.98;;;21.40;99.90;;;;;;5038093;28;20033;-68
2022/04/28 02:55:00;;;;;;;5.18;1.27;;;21.30;99.90;;;;;;5040360;28;22618;-68
2022/04/28 02:57:27;;;;;;;1.67;0.95;;;21.20;99.90;;;;;;5023378;28;20038;-69
2022/04/28 02:59:54;;;;;;;3.50;0.88;;;21.00;99.90;;;;;;5034715;28;20104;-69
2022/04/28 03:02:22;;;;;;;3.08;1.20;;;20.90;99.90;;;;;;5034464;28;20455;-69
2022/04/28 03:04:49;;;;;;;1.13;0.70;;;20.90;99.90;;;;;;5044621;28;20032;-68
2022/04/28 03:12:47;;;;;;;4.43;1.23;;;20.90;99.90;;;;;;5039553;28;20095;-69
2022/04/28 03:15:14;;;;;;;3.63;1.55;;;20.90;99.90;;;;;;5033574;28;20027;-68
2022/04/28 03:17:42;;;;;;;3.97;1.27;;;20.80;99.90;;;;;;5043369;28;20045;-68
2022/04/28 03:20:10;;;;;;;5.68;1.23;;;20.80;99.90;;;;;;5026913;28;20037;-69
2022/04/28 03:22:37;;;;;;;8.10;1.00;;;20.60;99.90;;;;;;5035639;28;20036;-68
2022/04/28 03:25:05;;;;;;;8.88;1.33;;;20.40;99.90;;;;;;5030892;28;20060;-68
2022/04/28 03:27:33;;;;;;;14.77;6.40;;;20.30;99.90;;;;;;5033263;28;20445;-69
2022/04/28 03:30:00;;;;;;;12.90;3.13;;;20.30;99.90;;;;;;5033015;28;21129;-68
2022/04/28 03:32:27;;;;;;;5.82;1.30;;;20.30;99.90;;;;;;5037387;28;20029;-68
2022/04/28 03:34:55;;;;;;;5.63;1.38;;;20.30;99.90;;;;;;5029082;28;20555;-68
2022/04/28 03:37:22;;;;;;;8.02;1.13;;;20.20;99.90;;;;;;5045140;28;20389;-68
2022/04/28 03:39:49;;;;;;;4.80;1.55;;;20.00;99.90;;;;;;5029835;28;20021;-68
2022/04/28 03:42:17;;;;;;;5.90;1.58;;;19.70;99.90;;;;;;5021545;28;20014;-68
2022/04/28 03:44:45;;;;;;;3.72;1.38;;;19.60;99.90;;;;;;5033880;28;20034;-68
2022/04/28 03:47:12;;;;;;;4.05;1.33;;;19.40;99.90;;;;;;5036162;28;20035;-68
2022/04/28 03:49:42;;;;;;;3.80;1.02;;;19.50;99.90;;;;;;5031230;28;20029;-68
2022/04/28 03:52:10;;;;;;;7.65;1.30;;;19.40;99.90;;;;;;5032678;28;20432;-68
2022/04/28 03:54:37;;;;;;;6.85;1.45;;;19.40;99.90;;;;;;5047441;28;20028;-69
2022/04/28 03:57:04;;;;;;;8.95;1.48;;;19.50;99.90;;;;;;5028545;28;20033;-68
2022/04/28 03:59:32;;;;;;;3.13;1.13;;;19.40;99.90;;;;;;5032114;28;20017;-68
2022/04/28 04:01:59;;;;;;;2.90;1.20;;;19.40;99.90;;;;;;5033148;28;20060;-68
2022/04/28 04:04:26;;;;;;;8.23;1.42;;;19.50;99.90;;;;;;5034149;28;20025;-68
2022/04/28 04:06:53;;;;;;;5.13;1.23;;;19.50;99.90;;;;;;5033599;28;20121;-68
2022/04/28 04:09:21;;;;;;;3.05;1.20;;;19.60;99.90;;;;;;5034842;28;20377;-68
2022/04/28 04:11:48;;;;;;;7.00;1.50;;;19.60;99.90;;;;;;5038083;28;20037;-68
2022/04/28 04:14:15;;;;;;;2.45;1.10;;;19.60;99.90;;;;;;5035469;28;20653;-68
2022/04/28 04:16:42;;;;;;;4.07;1.30;;;19.60;99.90;;;;;;5028704;28;21415;-69
2022/04/28 04:19:10;;;;;;;6.20;1.30;;;19.60;99.90;;;;;;5030818;28;20474;-69
2022/04/28 04:21:37;;;;;;;8.63;1.65;;;19.60;99.90;;;;;;5028679;28;20025;-68
2022/04/28 04:24:04;;;;;;;4.90;1.45;;;19.60;99.90;;;;;;5030674;28;20045;-68
2022/04/28 04:26:32;;;;;;;6.50;1.30;;;19.60;99.90;;;;;;5031578;28;20070;-69
2022/04/28 04:28:59;;;;;;;2.92;1.50;;;19.60;99.90;;;;;;5024649;28;20390;-69
2022/04/28 04:34:12;;;;;;;4.95;1.55;;;19.60;99.90;;;;;;5028121;28;20032;-71
2022/04/28 04:36:39;;;;;;;3.05;1.75;;;19.60;99.90;;;;;;5032206;28;20025;-70
2022/04/28 04:39:06;;;;;;;2.17;1.58;;;19.70;99.90;;;;;;5026400;28;20041;-70
2022/04/28 04:41:33;;;;;;;3.65;1.60;;;19.60;99.90;;;;;;5021558;28;20022;-69
2022/04/28 04:44:01;;;;;;;2.47;1.45;;;19.70;99.90;;;;;;5026934;28;20509;-69
2022/04/28 04:46:28;;;;;;;3.47;1.40;;;19.70;99.90;;;;;;5031131;28;20508;-69
2022/04/28 04:48:55;;;;;;;4.65;1.60;;;19.70;99.90;;;;;;5033199;28;20389;-70
2022/04/28 04:51:22;;;;;;;2.78;1.55;;;19.80;99.90;;;;;;5019968;28;20037;-69
2022/04/28 04:53:50;;;;;;;2.72;1.27;;;19.80;99.90;;;;;;5039405;28;20032;-68
2022/04/28 04:56:17;;;;;;;3.45;1.58;;;19.80;99.90;;;;;;5035816;28;20036;-69
2022/04/28 04:58:44;;;;;;;2.00;1.25;;;19.80;99.90;;;;;;5028878;28;20025;-69
2022/04/28 05:01:11;;;;;;;3.42;1.30;;;19.80;99.90;;;;;;5027882;28;20029;-69
2022/04/28 05:03:41;;;;;;;3.35;1.30;;;19.70;99.90;;;;;;5023608;28;20037;-69
2022/04/28 05:06:08;;;;;;;2.63;1.38;;;19.70;99.90;;;;;;5020949;28;20032;-68
2022/04/28 05:08:35;;;;;;;4.00;1.40;;;19.70;99.90;;;;;;5018714;28;20022;-69
2022/04/28 05:11:03;;;;;;;4.95;1.33;;;19.60;99.90;;;;;;5028382;28;20028;-69
2022/04/28 05:13:30;;;;;;;3.38;1.95;;;19.60;99.90;;;;;;5028655;28;20116;-69
2022/04/28 05:15:57;;;;;;;5.53;1.20;;;19.60;99.90;;;;;;5031638;28;20431;-70
2022/04/28 05:18:27;;;;;;;5.07;1.48;;;19.60;99.90;;;;;;5027051;28;20390;-68
2022/04/28 05:20:54;;;;;;;2.75;1.38;;;19.60;99.90;;;;;;5030525;28;20029;-69
2022/04/28 05:23:22;;;;;;;6.72;1.52;;;19.60;99.90;;;;;;5032420;28;20025;-69
2022/04/28 05:25:50;;;;;;;4.25;1.70;;;19.60;99.90;;;;;;5028975;28;20040;-69
2022/04/28 05:28:17;;;;;;;2.97;1.08;;;19.60;99.90;;;;;;5033578;28;20432;-69
2022/04/28 05:30:44;;;;;;;3.25;1.00;;;19.60;99.90;;;;;;5035963;28;20462;-70
2022/04/28 05:33:12;;;;;;;2.97;1.35;;;19.60;99.90;;;;;;5030319;28;20037;-70
2022/04/28 05:35:41;;;;;;;6.22;1.20;;;19.60;99.90;;;;;;5018889;28;20079;-70
2022/04/28 05:38:09;;;;;;;5.47;1.30;;;19.50;99.90;;;;;;5026095;28;20141;-70
2022/04/28 05:40:40;;;;;;;3.03;1.00;;;19.50;99.90;;;;;;5021755;28;20022;-70
2022/04/28 05:45:54;;;;;;;4.07;1.33;;;19.50;99.90;;;;;;5027393;28;20401;-69
2022/04/28 05:48:22;;;;;;;6.13;1.70;;;19.50;99.90;;;;;;5026483;28;20077;-70
2022/04/28 05:50:49;;;;;;;3.72;0.80;;;19.50;99.90;;;;;;5035822;28;20087;-68
2022/04/28 05:53:16;;;;;;;7.82;1.90;;;19.50;99.90;;;;;;5033455;28;20025;-68
2022/04/28 05:55:45;;;;;;;3.92;1.00;;;19.50;99.90;;;;;;5028241;28;20053;-69
2022/04/28 05:58:13;;;;;;;4.22;0.93;;;19.50;99.90;;;;;;5031833;28;20017;-69
2022/04/28 06:00:40;;;;;;;1.75;0.80;;;19.50;99.90;;;;;;5030893;28;20037;-68
2022/04/28 06:03:08;;;;;;;2.00;1.23;;;19.60;99.90;;;;;;5027860;28;20053;-69
2022/04/28 06:05:35;;;;;;;4.63;1.33;;;19.50;99.90;;;;;;5027328;28;20033;-69
2022/04/28 06:08:02;;;;;;;1.60;1.05;;;19.50;99.90;;;;;;5052628;28;20017;-69
2022/04/28 06:10:30;;;;;;;2.40;0.90;;;19.50;99.90;;;;;;5027735;28;20029;-70
2022/04/28 06:12:57;;;;;;;3.38;1.60;;;19.50;99.90;;;;;;5029714;28;20104;-69
2022/04/28 06:15:25;;;;;;;3.35;2.13;;;19.50;99.90;;;;;;5031132;28;20027;-69
2022/04/28 06:17:52;;;;;;;6.63;3.58;;;19.40;99.90;;;;;;5032429;28;20451;-69
2022/04/28 06:20:19;;;;;;;4.20;2.40;;;19.50;99.90;;;;;;5026316;28;20041;-69
2022/04/28 06:22:46;;;;;;;6.20;2.25;;;19.40;99.90;;;;;;5025155;28;20029;-70
2022/04/28 06:25:14;;;;;;;5.10;1.20;;;19.40;99.90;;;;;;5031095;28;20017;-70
2022/04/28 06:27:42;;;;;;;1.73;0.80;;;19.30;99.90;;;;;;5038946;28;20482;-70
2022/04/28 06:30:10;;;;;;;2.65;1.20;;;19.30;99.90;;;;;;5017495;28;20430;-70
2022/04/28 06:32:38;;;;;;;4.13;1.42;;;19.40;99.90;;;;;;5024042;28;20507;-70
2022/04/28 06:35:07;;;;;;;2.00;1.23;;;19.40;99.90;;;;;;5028118;28;20377;-69
2022/04/28 06:37:34;;;;;;;2.25;0.88;;;19.40;99.90;;;;;;5031305;28;20033;-70
2022/04/28 06:40:03;;;;;;;4.68;1.08;;;19.40;99.90;;;;;;5029155;28;20029;-70
2022/04/28 06:42:30;;;;;;;5.47;1.52;;;19.40;99.90;;;;;;5028157;28;20036;-70
2022/04/28 06:44:57;;;;;;;4.25;1.30;;;19.40;99.90;;;;;;5029816;28;20029;-71
2022/04/28 06:47:25;;;;;;;4.85;1.02;;;19.40;99.90;;;;;;5026711;28;20034;-70
2022/04/28 06:49:52;;;;;;;2.97;1.50;;;19.40;99.90;;;;;;5026859;28;20367;-69
2022/04/28 06:52:19;;;;;;;5.85;2.05;;;19.40;99.90;;;;;;5027981;28;20494;-70
2022/04/28 06:54:46;;;;;;;4.10;1.65;;;19.40;99.90;;;;;;5028697;28;20104;-69
2022/04/28 06:57:14;;;;;;;5.63;1.80;;;19.40;99.90;;;;;;5025306;28;20041;-70
2022/04/28 06:59:41;;;;;;;11.90;2.40;;;19.50;99.90;;;;;;5029495;28;20116;-70
2022/04/28 07:02:09;;;;;;;5.63;1.88;;;19.50;99.90;;;;;;5030334;28;20477;-70
2022/04/28 07:04:37;;;;;;;6.68;1.92;;;19.40;99.90;;;;;;5025558;28;20018;-70
2022/04/28 07:07:04;;;;;;;4.63;1.52;;;19.50;99.90;;;;;;5032933;28;20021;-69
2022/04/28 07:09:32;;;;;;;7.65;2.08;;;19.40;99.90;;;;;;5034588;28;20040;-70
2022/04/28 07:11:59;;;;;;;5.93;2.28;;;19.40;99.90;;;;;;5017784;28;20497;-70
2022/04/28 07:14:26;;;;;;;7.05;2.50;;;19.40;99.90;;;;;;5038484;28;20513;-70
2022/04/28 07:16:53;;;;;;;6.22;1.77;;;19.40;99.90;;;;;;5033479;28;20029;-70
2022/04/28 07:19:21;;;;;;;7.38;2.17;;;19.40;99.90;;;;;;5032067;28;20033;-70
2022/04/28 07:21:48;;;;;;;7.68;2.15;;;19.40;99.90;;;;;;5032312;28;20030;-70
2022/04/28 07:24:15;;;;;;;5.60;2.85;;;19.40;99.90;;;;;;5033982;28;20029;-70
2022/04/28 07:26:43;;;;;;;5.05;2.20;;;19.40;99.90;;;;;;5033012;28;20045;-70
2022/04/28 07:29:10;;;;;;;8.20;3.13;;;19.40;99.90;;;;;;5034230;28;20033;-70
2022/04/28 07:31:38;;;;;;;6.32;3.15;;;19.40;99.90;;;;;;5036581;28;20064;-70
2022/04/28 07:34:05;;;;;;;3.88;2.30;;;19.40;99.90;;;;;;5031119;28;20144;-70
2022/04/28 07:36:32;;;;;;;9.90;2.83;;;19.40;99.90;;;;;;5031998;28;20104;-70
2022/04/28 07:39:00;;;;;;;4.28;1.77;;;19.40;99.90;;;;;;5031062;28;20021;-70
2022/04/28 07:41:28;;;;;;;5.82;2.20;;;19.40;99.90;;;;;;5033498;28;20057;-70
2022/04/28 07:43:56;;;;;;;7.05;2.30;;;19.30;99.90;;;;;;5030900;28;20096;-71
2022/04/28 07:46:23;;;;;;;4.32;1.92;;;19.30;99.90;;;;;;5028271;28;20045;-70
2022/04/28 07:48:50;;;;;;;4.72;1.90;;;19.30;99.90;;;;;;5034227;28;20053;-70
2022/04/28 07:51:18;;;;;;;3.25;1.98;;;19.20;99.90;;;;;;5033127;28;20093;-70
2022/04/28 07:53:45;;;;;;;4.85;2.30;;;19.20;99.90;;;;;;5033312;28;20031;-70
2022/04/28 07:56:17;;;;;;;5.07;2.22;;;19.20;99.90;;;;;;5033086;28;20121;-70
2022/04/28 07:58:45;;;;;;;4.32;2.13;;;19.20;99.90;;;;;;5003545;28;20088;-70
2022/04/28 08:01:14;;;;;;;4.30;2.13;;;19.20;99.90;;;;;;5030582;28;20025;-70
2022/04/28 08:03:42;;;;;;;4.80;2.13;;;19.20;99.90;;;;;;5033364;28;20057;-70
2022/04/28 08:06:13;;;;;;;5.57;2.40;;;19.20;99.90;;;;;;5029955;28;20037;-70
2022/04/28 08:08:41;;;;;;;3.80;2.38;;;19.20;99.90;;;;;;5033850;28;20393;-70
2022/04/28 08:11:09;;;;;;;5.82;2.67;;;19.20;99.90;;;;;;5033085;28;20505;-70
2022/04/28 08:13:37;;;;;;;7.03;3.13;;;19.10;99.90;;;;;;5048108;28;20045;-70
2022/04/28 08:16:04;;;;;;;6.35;2.97;;;19.20;99.90;;;;;;5024650;28;20390;-71
2022/04/28 08:18:31;;;;;;;5.82;2.70;;;19.20;99.90;;;;;;5026490;28;20085;-71
2022/04/28 08:21:01;;;;;;;9.15;2.50;;;19.10;99.90;;;;;;5032325;28;20108;-70
2022/04/28 08:23:28;;;;;;;4.90;2.40;;;19.20;99.90;;;;;;5030135;28;20029;-70
2022/04/28 08:25:56;;;;;;;7.40;2.17;;;19.10;99.90;;;;;;5020743;28;20115;-71
2022/04/28 08:28:23;;;;;;;4.70;1.73;;;19.10;99.90;;;;;;5030757;28;20037;-71
2022/04/28 08:30:51;;;;;;;5.53;2.03;;;19.10;99.90;;;;;;5023839;28;20026;-70
2022/04/28 08:33:19;;;;;;;3.50;1.83;;;19.10;99.90;;;;;;5033090;28;20056;-70
2022/04/28 08:35:46;;;;;;;4.60;2.35;;;19.10;99.90;;;;;;5026309;28;20029;-70
2022/04/28 08:38:13;;;;;;;6.53;2.25;;;19.10;99.90;;;;;;5033766;28;20025;-70
2022/04/28 08:40:43;;;;;;;6.82;2.20;;;19.10;99.90;;;;;;5027240;28;20069;-70
2022/04/28 08:43:12;;;;;;;7.78;1.77;;;19.10;99.90;;;;;;5028773;28;20025;-70
2022/04/28 08:46:50;;;;;;;3.40;1.50;;;19.10;99.90;;;;;;5029453;28;20077;-70
2022/04/28 08:48:31;;;;;;;10.23;2.58;;;19.10;99.90;;;;;;5033170;28;20395;-71
2022/04/28 08:50:59;;;;;;;5.70;2.33;;;19.10;99.90;;;;;;5031642;28;20025;-70
2022/04/28 08:53:27;;;;;;;3.70;1.88;;;19.10;99.90;;;;;;5032026;28;20052;-67
2022/04/28 08:55:57;;;;;;;9.50;2.60;;;19.10;99.90;;;;;;5032931;28;20073;-71
2022/04/28 08:58:25;;;;;;;7.50;2.75;;;19.10;99.90;;;;;;5012894;28;20030;-70
2022/04/28 09:00:53;;;;;;;3.92;2.17;;;19.10;99.90;;;;;;5029965;28;20124;-70
2022/04/28 09:03:20;;;;;;;5.75;1.80;;;19.00;99.90;;;;;;5028864;28;20053;-70
2022/04/28 09:05:48;;;;;;;3.83;1.75;;;19.10;99.90;;;;;;5029855;28;20417;-71
2022/04/28 09:08:18;;;;;;;7.25;1.98;;;19.00;99.90;;;;;;5031870;28;20017;-71
2022/04/28 09:10:45;;;;;;;6.97;1.83;;;19.00;99.90;;;;;;5031431;28;20041;-71
2022/04/28 09:15:58;;;;;;;5.45;1.88;;;19.10;99.90;;;;;;5031020;28;20453;-70
2022/04/28 09:18:25;;;;;;;7.80;1.98;;;19.10;99.90;;;;;;5029211;28;20017;-71
2022/04/28 09:20:53;;;;;;;2.40;1.75;;;19.10;99.90;;;;;;5031441;28;20029;-71
2022/04/28 09:23:21;;;;;;;3.33;1.40;;;19.10;99.90;;;;;;5029975;28;20043;-71
2022/04/28 09:25:48;;;;;;;3.78;1.40;;;19.10;99.90;;;;;;5029125;28;20085;-70
2022/04/28 09:28:17;;;;;;;3.03;1.33;;;19.10;99.90;;;;;;5030962;28;20029;-71
2022/04/28 09:30:52;;;;;;;4.70;1.33;;;19.10;99.90;;;;;;5031037;28;20490;-71
2022/04/28 09:33:20;;;;;;;2.90;1.75;;;19.10;99.90;;;;;;5029492;28;20112;-71
2022/04/28 09:35:54;;;;;;;3.38;2.13;;;19.10;99.90;;;;;;5031700;28;20044;-71
2022/04/28 09:38:21;;;;;;;2.88;1.10;;;19.10;99.90;;;;;;5019961;28;20037;-71
2022/04/28 09:43:35;;;;;;;2.25;1.55;;;19.10;99.90;;;;;;5028644;28;20028;-71
2022/04/28 09:46:04;;;;;;;3.78;1.77;;;19.10;99.90;;;;;;5032055;28;20025;-71
2022/04/28 09:48:33;;;;;;;4.20;1.67;;;19.10;99.90;;;;;;5031105;28;20118;-71
2022/04/28 09:51:07;;;;;;;2.78;1.25;;;19.10;99.90;;;;;;5029230;28;20032;-71
2022/04/28 09:53:36;;;;;;;3.10;1.60;;;19.10;99.90;;;;;;5031406;28;20084;-71
2022/04/28 09:56:05;;;;;;;4.00;1.50;;;19.10;99.90;;;;;;5030496;28;20385;-71
2022/04/28 09:58:34;;;;;;;2.00;1.33;;;19.10;99.90;;;;;;5030302;28;20026;-70
2022/04/28 10:01:03;;;;;;;2.65;1.33;;;19.10;99.90;;;;;;5025687;28;20025;-70
2022/04/28 10:03:33;;;;;;;4.60;1.50;;;19.00;99.90;;;;;;5031672;28;20042;-71
2022/04/28 10:06:08;;;;;;;6.22;1.77;;;19.00;99.90;;;;;;5027693;28;20116;-71
2022/04/28 10:08:36;;;;;;;2.35;1.45;;;19.00;99.90;;;;;;5014591;28;20033;-70
2022/04/28 10:11:06;;;;;;;5.30;1.90;;;19.00;99.90;;;;;;5031018;28;20056;-71
2022/04/28 10:13:34;;;;;;;5.80;1.77;;;19.00;99.90;;;;;;5021365;28;20034;-71
2022/04/28 10:16:06;;;;;;;4.10;1.70;;;19.00;99.90;;;;;;5030943;28;20066;-71
2022/04/28 10:18:40;;;;;;;3.63;1.73;;;19.00;99.90;;;;;;5026260;28;20301;-70
2022/04/28 10:21:12;;;;;;;3.55;2.13;;;18.90;99.90;;;;;;5031685;28;20724;-71
2022/04/28 10:32:57;;;;;;;3.17;1.55;;;18.90;99.90;;;;;;5026606;28;20043;-70
2022/04/28 10:35:45;;;;;;;4.97;2.00;;;19.00;99.90;;;;;;5023411;28;20120;-71
2022/04/28 10:38:30;;;;;;;4.60;2.60;;;19.00;99.90;;;;;;5032505;28;20057;-70
2022/04/28 10:41:06;;;;;;;6.75;2.53;;;18.90;99.90;;;;;;5034621;28;20163;-70
2022/04/28 10:43:33;;;;;;;3.65;2.40;;;18.90;99.90;;;;;;5035669;28;20118;-71
2022/04/28 10:46:22;;;;;;;3.28;1.35;;;18.90;99.90;;;;;;5034918;28;20021;-71
2022/04/28 10:48:54;;;;;;;4.22;1.33;;;18.90;99.90;;;;;;5032185;28;20034;-71
2022/04/28 10:51:26;;;;;;;2.83;1.67;;;18.90;99.90;;;;;;5033396;28;20028;-71
2022/04/28 10:54:16;;;;;;;3.83;1.38;;;18.90;99.90;;;;;;5040530;28;20037;-71
2022/04/28 10:56:56;;;;;;;4.53;1.30;;;19.00;99.90;;;;;;5040062;28;20040;-71
2022/04/28 10:59:37;;;;;;;3.53;1.23;;;19.00;99.90;;;;;;5034860;28;20026;-71
2022/04/28 11:02:14;;;;;;;2.28;1.30;;;19.00;99.90;;;;;;5033768;28;20076;-71
2022/04/28 11:04:43;;;;;;;3.70;1.80;;;19.00;99.90;;;;;;5032467;28;20040;-71
2022/04/28 11:07:12;;;;;;;4.90;1.65;;;19.00;99.90;;;;;;5034051;28;20381;-73
2022/04/28 11:09:41;;;;;;;4.88;1.38;;;19.10;99.90;;;;;;5034788;28;20402;-71
2022/04/28 11:12:16;;;;;;;4.30;1.67;;;19.10;99.90;;;;;;5034246;28;20036;-70
2022/04/28 11:14:52;;;;;;;3.70;1.88;;;19.10;99.90;;;;;;5021082;28;20041;-71
2022/04/28 11:17:23;;;;;;;3.03;1.20;;;19.10;99.90;;;;;;5034845;28;20014;-71
2022/04/28 11:19:51;;;;;;;4.10;1.48;;;19.10;99.90;;;;;;5031139;28;20064;-71
2022/04/28 11:22:18;;;;;;;4.72;1.48;;;19.10;99.90;;;;;;5029599;28;20025;-71
2022/04/28 11:24:47;;;;;;;7.85;1.98;;;19.10;99.90;;;;;;5035309;28;20036;-71
2022/04/28 11:27:19;;;;;;;2.65;1.20;;;19.10;99.90;;;;;;5031291;28;20029;-71
2022/04/28 11:29:47;;;;;;;10.50;2.20;;;19.10;99.90;;;;;;5032906;28;20033;-71
2022/04/28 11:32:16;;;;;;;5.15;2.20;;;19.10;99.90;;;;;;5033596;28;20037;-71
2022/04/28 11:34:46;;;;;;;5.65;2.53;;;19.20;99.90;;;;;;5033162;28;20489;-71
2022/04/28 11:37:24;;;;;;;4.45;2.85;;;19.10;99.90;;;;;;5028450;28;20040;-71
2022/04/28 11:39:56;;;;;;;7.80;2.72;;;19.10;99.90;;;;;;5030785;28;20037;-71
2022/04/28 11:42:26;;;;;;;4.90;1.63;;;19.20;99.90;;;;;;5028150;28;20084;-71
2022/04/28 11:44:56;;;;;;;4.80;1.42;;;19.10;99.90;;;;;;5031323;28;20017;-71
2022/04/28 11:47:24;;;;;;;2.67;1.75;;;19.10;99.90;;;;;;5030430;28;20425;-71
2022/04/28 11:50:01;;;;;;;2.28;1.02;;;19.10;99.90;;;;;;5034621;28;20039;-72
2022/04/28 11:52:34;;;;;;;4.82;1.48;;;19.00;99.90;;;;;;5034102;28;20025;-71
2022/04/28 11:55:04;;;;;;;5.93;1.63;;;19.10;99.90;;;;;;5033424;28;20061;-71
2022/04/28 11:57:33;;;;;;;2.55;1.25;;;19.10;99.90;;;;;;5035496;28;20486;-71
2022/04/28 12:00:01;;;;;;;3.05;1.08;;;19.10;99.90;;;;;;5036784;28;20033;-71
2022/04/28 12:02:30;;;;;;;5.78;1.42;;;19.20;99.90;;;;;;5032282;28;20252;-71
2022/04/28 12:05:00;;;;;;;3.35;1.02;;;19.40;99.90;;;;;;5032631;28;20018;-71
2022/04/28 12:07:30;;;;;;;2.55;1.10;;;19.40;99.90;;;;;;5036031;28;20092;-71
2022/04/28 12:15:30;;;;;;;3.67;1.95;;;19.50;99.90;;;;;;5032890;28;20082;-71
2022/04/28 12:21:01;;;;;;;2.67;1.52;;;19.50;99.90;;;;;;5029989;28;20040;-71
2022/04/28 12:23:29;;;;;;;5.22;1.80;;;19.40;99.90;;;;;;5030456;28;20048;-71
2022/04/28 12:26:01;;;;;;;2.13;0.93;;;19.40;99.90;;;;;;5031838;28;20064;-71
2022/04/28 12:28:51;;;;;;;2.13;1.33;;;19.40;99.90;;;;;;5031894;28;20508;-71
2022/04/28 12:31:31;;;;;;;2.83;1.60;;;19.30;99.90;;;;;;5032612;28;20033;-71
2022/04/28 12:33:59;;;;;;;2.65;1.13;;;19.30;99.90;;;;;;5030466;28;21891;-71
2022/04/28 12:36:28;;;;;;;4.45;1.30;;;19.30;99.90;;;;;;5030390;28;20478;-71
2022/04/28 12:38:59;;;;;;;9.48;1.65;;;19.30;99.90;;;;;;5031746;28;20022;-71
2022/04/28 12:41:30;;;;;;;2.65;1.52;;;19.20;99.90;;;;;;5032195;28;20118;-71
2022/04/28 12:44:00;;;;;;;6.82;1.40;;;19.20;99.90;;;;;;5031224;28;20057;-71
2022/04/28 12:46:32;;;;;;;2.58;1.40;;;19.10;99.90;;;;;;5032053;28;20032;-71
2022/04/28 12:49:01;;;;;;;4.20;1.15;;;19.10;99.90;;;;;;5033044;28;20474;-72
2022/04/28 12:51:30;;;;;;;4.65;1.73;;;19.10;99.90;;;;;;5032909;28;20080;-71
2022/04/28 12:54:20;;;;;;;1.45;1.23;;;19.10;99.90;;;;;;5031791;28;20021;-71
2022/04/28 12:56:58;;;;;;;3.53;1.08;;;19.10;99.90;;;;;;5032237;28;20060;-71
2022/04/28 12:59:28;;;;;;;2.67;0.82;;;19.10;99.90;;;;;;5032229;28;20544;-71
2022/04/28 13:01:56;;;;;;;2.55;1.00;;;19.10;99.90;;;;;;5031678;28;20557;-71
2022/04/28 13:04:26;;;;;;;2.58;1.10;;;19.10;99.90;;;;;;5032159;28;20029;-71
2022/04/28 13:06:54;;;;;;;2.13;1.20;;;19.10;99.90;;;;;;5031309;28;20036;-71
2022/04/28 13:09:23;;;;;;;3.35;0.90;;;19.10;99.90;;;;;;5031058;28;20509;-71
2022/04/28 13:11:51;;;;;;;5.43;1.65;;;19.10;99.90;;;;;;5030995;28;20033;-71
2022/04/28 13:14:21;;;;;;;3.38;1.25;;;19.10;99.90;;;;;;5033261;28;20061;-71
2022/04/28 13:16:50;;;;;;;2.53;1.30;;;19.10;99.90;;;;;;5027820;28;20533;-71
2022/04/28 13:19:22;;;;;;;2.92;0.95;;;19.00;99.90;;;;;;5033130;28;20104;-71
2022/04/28 13:25:13;;;;;;;3.15;1.30;;;19.00;99.90;;;;;;5025356;28;20084;-71
2022/04/28 13:27:40;;;;;;;2.83;1.08;;;19.00;99.90;;;;;;5026864;28;20459;-71
2022/04/28 13:30:08;;;;;;;3.78;2.08;;;19.00;99.90;;;;;;5032268;28;20037;-71
2022/04/28 13:32:36;;;;;;;2.22;0.85;;;19.00;99.90;;;;;;5031829;28;20132;-71
2022/04/28 13:35:04;;;;;;;1.40;1.17;;;19.00;99.90;;;;;;5031627;28;20037;-71
2022/04/28 13:37:31;;;;;;;5.50;1.20;;;19.00;99.90;;;;;;5031898;28;20025;-71